sensor_id;sensor_type;location;lat;lon;timestamp;P1;durP1;ratioP1;P2;durP2;ratioP2
78205;SDS011;67480;48.920;12.880;2023-03-01T00:01:49;26.45;;;17.80;;
78205;SDS011;67480;48.920;12.880;2023-03-01T00:04:14;25.30;;;17.15;;
78205;SDS011;67480;48.920;12.880;2023-03-01T00:06:39;27.30;;;17.30;;
78205;SDS011;67480;48.920;12.880;2023-03-01T00:09:07;27.40;;;17.20;;
78205;SDS011;67480;48.920;12.880;2023-03-01T00:11:33;26.48;;;16.27;;
78205;SDS011;67480;48.920;12.880;2023-03-01T00:13:59;26.90;;;16.98;;
78205;SDS011;67480;48.920;12.880;2023-03-01T00:16:29;28.73;;;18.35;;
78205;SDS011;67480;48.920;12.880;2023-03-01T00:18:56;26.25;;;17.15;;
78205;SDS011;67480;48.920;12.880;2023-03-01T00:21:22;25.13;;;16.85;;
78205;SDS011;67480;48.920;12.880;2023-03-01T00:23:48;28.15;;;17.92;;
78205;SDS011;67480;48.920;12.880;2023-03-01T00:26:14;26.63;;;17.48;;
78205;SDS011;67480;48.920;12.880;2023-03-01T00:28:41;24.25;;;16.27;;
78205;SDS011;67480;48.920;12.880;2023-03-01T00:31:08;25.08;;;16.55;;
78205;SDS011;67480;48.920;12.880;2023-03-01T00:33:36;23.45;;;15.77;;
78205;SDS011;67480;48.920;12.880;2023-03-01T00:36:02;26.80;;;16.45;;
78205;SDS011;67480;48.920;12.880;2023-03-01T00:38:28;24.48;;;16.52;;
78205;SDS011;67480;48.920;12.880;2023-03-01T00:40:53;27.17;;;17.17;;
78205;SDS011;67480;48.920;12.880;2023-03-01T00:43:19;28.70;;;16.55;;
78205;SDS011;67480;48.920;12.880;2023-03-01T00:45:44;24.65;;;16.58;;
78205;SDS011;67480;48.920;12.880;2023-03-01T00:48:10;25.70;;;16.13;;
78205;SDS011;67480;48.920;12.880;2023-03-01T00:50:35;27.95;;;16.42;;
78205;SDS011;67480;48.920;12.880;2023-03-01T00:53:01;25.67;;;17.30;;
78205;SDS011;67480;48.920;12.880;2023-03-01T00:55:26;24.35;;;16.10;;
78205;SDS011;67480;48.920;12.880;2023-03-01T00:57:51;27.20;;;17.52;;
78205;SDS011;67480;48.920;12.880;2023-03-01T01:00:17;27.15;;;17.10;;
78205;SDS011;67480;48.920;12.880;2023-03-01T01:02:44;25.25;;;17.10;;
78205;SDS011;67480;48.920;12.880;2023-03-01T01:05:10;23.48;;;16.65;;
78205;SDS011;67480;48.920;12.880;2023-03-01T01:07:36;24.73;;;16.33;;
78205;SDS011;67480;48.920;12.880;2023-03-01T01:10:02;23.30;;;15.73;;
78205;SDS011;67480;48.920;12.880;2023-03-01T01:12:28;23.80;;;16.92;;
78205;SDS011;67480;48.920;12.880;2023-03-01T01:14:53;26.67;;;16.70;;
78205;SDS011;67480;48.920;12.880;2023-03-01T01:17:18;26.23;;;16.52;;
78205;SDS011;67480;48.920;12.880;2023-03-01T01:19:44;25.88;;;15.82;;
78205;SDS011;67480;48.920;12.880;2023-03-01T01:22:10;25.42;;;16.05;;
78205;SDS011;67480;48.920;12.880;2023-03-01T01:24:35;24.20;;;14.80;;
78205;SDS011;67480;48.920;12.880;2023-03-01T01:27:02;23.42;;;16.48;;
78205;SDS011;67480;48.920;12.880;2023-03-01T01:29:27;25.90;;;15.68;;
78205;SDS011;67480;48.920;12.880;2023-03-01T01:31:53;23.83;;;15.73;;
78205;SDS011;67480;48.920;12.880;2023-03-01T01:34:19;26.52;;;16.55;;
78205;SDS011;67480;48.920;12.880;2023-03-01T01:36:50;25.50;;;16.27;;
78205;SDS011;67480;48.920;12.880;2023-03-01T01:39:20;21.38;;;14.77;;
78205;SDS011;67480;48.920;12.880;2023-03-01T01:41:47;27.20;;;15.85;;
78205;SDS011;67480;48.920;12.880;2023-03-01T01:44:23;25.85;;;15.40;;
78205;SDS011;67480;48.920;12.880;2023-03-01T01:46:57;24.75;;;15.50;;
78205;SDS011;67480;48.920;12.880;2023-03-01T01:49:30;24.15;;;15.02;;
78205;SDS011;67480;48.920;12.880;2023-03-01T01:52:02;23.98;;;15.40;;
78205;SDS011;67480;48.920;12.880;2023-03-01T01:54:40;24.67;;;16.45;;
78205;SDS011;67480;48.920;12.880;2023-03-01T01:57:10;22.33;;;15.70;;
78205;SDS011;67480;48.920;12.880;2023-03-01T01:59:39;24.10;;;15.95;;
78205;SDS011;67480;48.920;12.880;2023-03-01T02:02:09;21.98;;;14.15;;
78205;SDS011;67480;48.920;12.880;2023-03-01T02:04:36;22.95;;;13.98;;
78205;SDS011;67480;48.920;12.880;2023-03-01T02:07:08;23.52;;;15.70;;
78205;SDS011;67480;48.920;12.880;2023-03-01T02:09:40;22.35;;;15.68;;
78205;SDS011;67480;48.920;12.880;2023-03-01T02:12:10;24.52;;;15.88;;
78205;SDS011;67480;48.920;12.880;2023-03-01T02:14:35;23.50;;;15.30;;
78205;SDS011;67480;48.920;12.880;2023-03-01T02:17:01;21.98;;;14.63;;
78205;SDS011;67480;48.920;12.880;2023-03-01T02:19:31;23.55;;;15.65;;
78205;SDS011;67480;48.920;12.880;2023-03-01T02:22:12;24.08;;;15.07;;
78205;SDS011;67480;48.920;12.880;2023-03-01T02:24:57;29.73;;;16.77;;
78205;SDS011;67480;48.920;12.880;2023-03-01T02:27:26;26.20;;;16.45;;
78205;SDS011;67480;48.920;12.880;2023-03-01T02:30:01;27.02;;;14.80;;
78205;SDS011;67480;48.920;12.880;2023-03-01T02:32:27;22.45;;;13.70;;
78205;SDS011;67480;48.920;12.880;2023-03-01T02:34:53;22.80;;;15.07;;
78205;SDS011;67480;48.920;12.880;2023-03-01T02:37:21;24.13;;;15.13;;
78205;SDS011;67480;48.920;12.880;2023-03-01T02:39:51;24.42;;;14.65;;
78205;SDS011;67480;48.920;12.880;2023-03-01T02:42:23;29.85;;;17.73;;
78205;SDS011;67480;48.920;12.880;2023-03-01T02:44:55;25.92;;;15.75;;
78205;SDS011;67480;48.920;12.880;2023-03-01T02:47:21;27.52;;;17.08;;
78205;SDS011;67480;48.920;12.880;2023-03-01T02:49:46;27.10;;;15.75;;
78205;SDS011;67480;48.920;12.880;2023-03-01T02:54:48;25.23;;;17.63;;
78205;SDS011;67480;48.920;12.880;2023-03-01T02:57:31;23.20;;;14.55;;
78205;SDS011;67480;48.920;12.880;2023-03-01T03:00:00;25.70;;;15.55;;
78205;SDS011;67480;48.920;12.880;2023-03-01T03:02:32;25.42;;;14.60;;
78205;SDS011;67480;48.920;12.880;2023-03-01T03:05:17;24.95;;;15.60;;
78205;SDS011;67480;48.920;12.880;2023-03-01T03:07:45;26.92;;;15.35;;
78205;SDS011;67480;48.920;12.880;2023-03-01T03:10:17;23.42;;;15.18;;
78205;SDS011;67480;48.920;12.880;2023-03-01T03:12:58;19.95;;;13.30;;
78205;SDS011;67480;48.920;12.880;2023-03-01T03:15:25;24.13;;;15.60;;
78205;SDS011;67480;48.920;12.880;2023-03-01T03:17:52;23.75;;;14.88;;
78205;SDS011;67480;48.920;12.880;2023-03-01T03:20:19;22.60;;;14.18;;
78205;SDS011;67480;48.920;12.880;2023-03-01T03:22:47;21.80;;;14.82;;
78205;SDS011;67480;48.920;12.880;2023-03-01T03:25:14;24.88;;;15.05;;
78205;SDS011;67480;48.920;12.880;2023-03-01T03:27:42;22.52;;;14.75;;
78205;SDS011;67480;48.920;12.880;2023-03-01T03:30:09;22.95;;;14.15;;
78205;SDS011;67480;48.920;12.880;2023-03-01T03:32:37;22.00;;;14.68;;
78205;SDS011;67480;48.920;12.880;2023-03-01T03:35:04;21.15;;;13.98;;
78205;SDS011;67480;48.920;12.880;2023-03-01T03:37:37;22.27;;;14.73;;
78205;SDS011;67480;48.920;12.880;2023-03-01T03:40:24;20.83;;;13.60;;
78205;SDS011;67480;48.920;12.880;2023-03-01T03:42:50;23.77;;;15.48;;
78205;SDS011;67480;48.920;12.880;2023-03-01T03:45:18;20.42;;;14.40;;
78205;SDS011;67480;48.920;12.880;2023-03-01T03:47:44;21.02;;;13.35;;
78205;SDS011;67480;48.920;12.880;2023-03-01T03:50:13;21.58;;;14.05;;
78205;SDS011;67480;48.920;12.880;2023-03-01T03:52:40;21.77;;;13.30;;
78205;SDS011;67480;48.920;12.880;2023-03-01T03:55:06;19.23;;;13.35;;
78205;SDS011;67480;48.920;12.880;2023-03-01T03:57:42;21.38;;;13.20;;
78205;SDS011;67480;48.920;12.880;2023-03-01T04:00:08;19.52;;;13.35;;
78205;SDS011;67480;48.920;12.880;2023-03-01T04:02:41;22.20;;;14.80;;
78205;SDS011;67480;48.920;12.880;2023-03-01T04:05:07;20.75;;;13.77;;
78205;SDS011;67480;48.920;12.880;2023-03-01T04:07:35;31.10;;;18.45;;
78205;SDS011;67480;48.920;12.880;2023-03-01T04:10:02;23.77;;;14.40;;
78205;SDS011;67480;48.920;12.880;2023-03-01T04:12:28;21.70;;;13.88;;
78205;SDS011;67480;48.920;12.880;2023-03-01T04:14:53;21.85;;;13.93;;
78205;SDS011;67480;48.920;12.880;2023-03-01T04:17:18;20.88;;;13.95;;
78205;SDS011;67480;48.920;12.880;2023-03-01T04:19:44;18.50;;;12.43;;
78205;SDS011;67480;48.920;12.880;2023-03-01T04:22:13;21.40;;;13.90;;
78205;SDS011;67480;48.920;12.880;2023-03-01T04:24:46;24.65;;;14.30;;
78205;SDS011;67480;48.920;12.880;2023-03-01T04:27:11;21.55;;;13.70;;
78205;SDS011;67480;48.920;12.880;2023-03-01T04:29:36;25.90;;;15.43;;
78205;SDS011;67480;48.920;12.880;2023-03-01T04:32:02;22.45;;;14.23;;
78205;SDS011;67480;48.920;12.880;2023-03-01T04:34:28;23.00;;;14.00;;
78205;SDS011;67480;48.920;12.880;2023-03-01T04:36:54;24.50;;;14.45;;
78205;SDS011;67480;48.920;12.880;2023-03-01T04:39:19;21.88;;;13.77;;
78205;SDS011;67480;48.920;12.880;2023-03-01T04:41:44;21.10;;;14.27;;
78205;SDS011;67480;48.920;12.880;2023-03-01T04:44:10;23.38;;;14.00;;
78205;SDS011;67480;48.920;12.880;2023-03-01T04:46:36;19.15;;;13.32;;
78205;SDS011;67480;48.920;12.880;2023-03-01T04:49:01;20.27;;;12.57;;
78205;SDS011;67480;48.920;12.880;2023-03-01T04:51:27;18.73;;;12.75;;
78205;SDS011;67480;48.920;12.880;2023-03-01T04:53:53;15.10;;;11.63;;
78205;SDS011;67480;48.920;12.880;2023-03-01T04:56:18;18.83;;;12.88;;
78205;SDS011;67480;48.920;12.880;2023-03-01T04:58:44;20.13;;;12.48;;
78205;SDS011;67480;48.920;12.880;2023-03-01T05:01:16;18.73;;;12.98;;
78205;SDS011;67480;48.920;12.880;2023-03-01T05:03:44;19.80;;;12.32;;
78205;SDS011;67480;48.920;12.880;2023-03-01T05:06:14;17.65;;;11.43;;
78205;SDS011;67480;48.920;12.880;2023-03-01T05:08:40;20.45;;;12.15;;
78205;SDS011;67480;48.920;12.880;2023-03-01T05:11:06;18.25;;;11.65;;
78205;SDS011;67480;48.920;12.880;2023-03-01T05:13:36;19.88;;;12.88;;
78205;SDS011;67480;48.920;12.880;2023-03-01T05:16:03;19.15;;;12.73;;
78205;SDS011;67480;48.920;12.880;2023-03-01T05:18:31;17.45;;;11.82;;
78205;SDS011;67480;48.920;12.880;2023-03-01T05:21:05;17.38;;;11.63;;
78205;SDS011;67480;48.920;12.880;2023-03-01T05:23:32;16.85;;;11.43;;
78205;SDS011;67480;48.920;12.880;2023-03-01T05:25:58;18.13;;;11.80;;
78205;SDS011;67480;48.920;12.880;2023-03-01T05:28:25;17.92;;;11.55;;
78205;SDS011;67480;48.920;12.880;2023-03-01T05:30:51;16.85;;;11.57;;
78205;SDS011;67480;48.920;12.880;2023-03-01T05:33:17;19.05;;;12.27;;
78205;SDS011;67480;48.920;12.880;2023-03-01T05:35:44;17.20;;;12.10;;
78205;SDS011;67480;48.920;12.880;2023-03-01T05:38:10;19.40;;;12.63;;
78205;SDS011;67480;48.920;12.880;2023-03-01T05:40:43;21.08;;;12.35;;
78205;SDS011;67480;48.920;12.880;2023-03-01T05:43:10;18.08;;;11.23;;
78205;SDS011;67480;48.920;12.880;2023-03-01T05:45:37;21.60;;;13.43;;
78205;SDS011;67480;48.920;12.880;2023-03-01T05:48:03;20.95;;;12.98;;
78205;SDS011;67480;48.920;12.880;2023-03-01T05:50:31;15.43;;;11.20;;
78205;SDS011;67480;48.920;12.880;2023-03-01T05:52:59;15.90;;;10.75;;
78205;SDS011;67480;48.920;12.880;2023-03-01T05:55:28;18.10;;;11.07;;
78205;SDS011;67480;48.920;12.880;2023-03-01T05:57:54;17.02;;;11.45;;
78205;SDS011;67480;48.920;12.880;2023-03-01T06:00:20;17.48;;;10.93;;
78205;SDS011;67480;48.920;12.880;2023-03-01T06:02:48;17.55;;;11.63;;
78205;SDS011;67480;48.920;12.880;2023-03-01T06:05:14;14.77;;;10.32;;
78205;SDS011;67480;48.920;12.880;2023-03-01T06:07:40;15.70;;;10.43;;
78205;SDS011;67480;48.920;12.880;2023-03-01T06:10:06;18.00;;;11.60;;
78205;SDS011;67480;48.920;12.880;2023-03-01T06:12:33;15.93;;;10.88;;
78205;SDS011;67480;48.920;12.880;2023-03-01T06:14:59;18.33;;;11.65;;
78205;SDS011;67480;48.920;12.880;2023-03-01T06:17:25;21.05;;;12.45;;
78205;SDS011;67480;48.920;12.880;2023-03-01T06:19:50;18.63;;;12.48;;
78205;SDS011;67480;48.920;12.880;2023-03-01T06:22:15;19.85;;;11.63;;
78205;SDS011;67480;48.920;12.880;2023-03-01T06:24:41;17.95;;;11.10;;
78205;SDS011;67480;48.920;12.880;2023-03-01T06:27:06;21.55;;;12.88;;
78205;SDS011;67480;48.920;12.880;2023-03-01T06:29:31;18.38;;;11.73;;
78205;SDS011;67480;48.920;12.880;2023-03-01T06:31:57;21.33;;;12.90;;
78205;SDS011;67480;48.920;12.880;2023-03-01T06:34:22;17.23;;;11.27;;
78205;SDS011;67480;48.920;12.880;2023-03-01T06:36:47;17.38;;;11.88;;
78205;SDS011;67480;48.920;12.880;2023-03-01T06:39:12;16.40;;;12.07;;
78205;SDS011;67480;48.920;12.880;2023-03-01T06:41:38;19.45;;;11.98;;
78205;SDS011;67480;48.920;12.880;2023-03-01T06:44:03;26.30;;;16.40;;
78205;SDS011;67480;48.920;12.880;2023-03-01T06:46:28;18.63;;;11.95;;
78205;SDS011;67480;48.920;12.880;2023-03-01T06:48:54;18.02;;;13.30;;
78205;SDS011;67480;48.920;12.880;2023-03-01T06:51:19;22.30;;;15.93;;
78205;SDS011;67480;48.920;12.880;2023-03-01T06:53:45;22.42;;;13.82;;
78205;SDS011;67480;48.920;12.880;2023-03-01T06:56:11;20.85;;;14.20;;
78205;SDS011;67480;48.920;12.880;2023-03-01T06:58:37;27.85;;;19.73;;
78205;SDS011;67480;48.920;12.880;2023-03-01T07:01:06;23.73;;;15.40;;
78205;SDS011;67480;48.920;12.880;2023-03-01T07:03:32;24.25;;;15.07;;
78205;SDS011;67480;48.920;12.880;2023-03-01T07:05:57;26.50;;;16.02;;
78205;SDS011;67480;48.920;12.880;2023-03-01T07:08:22;43.45;;;24.48;;
78205;SDS011;67480;48.920;12.880;2023-03-01T07:10:48;26.02;;;16.15;;
78205;SDS011;67480;48.920;12.880;2023-03-01T07:13:13;25.42;;;15.18;;
78205;SDS011;67480;48.920;12.880;2023-03-01T07:15:39;25.40;;;15.95;;
78205;SDS011;67480;48.920;12.880;2023-03-01T07:18:05;21.70;;;15.75;;
78205;SDS011;67480;48.920;12.880;2023-03-01T07:20:30;24.52;;;15.57;;
78205;SDS011;67480;48.920;12.880;2023-03-01T07:22:55;23.23;;;15.18;;
78205;SDS011;67480;48.920;12.880;2023-03-01T07:25:23;25.55;;;17.10;;
78205;SDS011;67480;48.920;12.880;2023-03-01T07:27:52;25.02;;;15.45;;
78205;SDS011;67480;48.920;12.880;2023-03-01T07:30:18;27.05;;;16.08;;
78205;SDS011;67480;48.920;12.880;2023-03-01T07:32:44;25.08;;;16.23;;
78205;SDS011;67480;48.920;12.880;2023-03-01T07:35:10;22.65;;;15.63;;
78205;SDS011;67480;48.920;12.880;2023-03-01T07:37:35;31.02;;;18.50;;
78205;SDS011;67480;48.920;12.880;2023-03-01T07:40:01;26.48;;;16.88;;
78205;SDS011;67480;48.920;12.880;2023-03-01T07:42:26;22.67;;;15.63;;
78205;SDS011;67480;48.920;12.880;2023-03-01T07:44:52;24.48;;;15.65;;
78205;SDS011;67480;48.920;12.880;2023-03-01T07:47:17;23.42;;;16.83;;
78205;SDS011;67480;48.920;12.880;2023-03-01T07:49:42;23.17;;;15.20;;
78205;SDS011;67480;48.920;12.880;2023-03-01T07:52:09;23.88;;;16.63;;
78205;SDS011;67480;48.920;12.880;2023-03-01T07:54:36;26.25;;;19.02;;
78205;SDS011;67480;48.920;12.880;2023-03-01T07:57:01;24.60;;;15.35;;
78205;SDS011;67480;48.920;12.880;2023-03-01T07:59:27;22.98;;;15.88;;
78205;SDS011;67480;48.920;12.880;2023-03-01T08:01:54;21.48;;;16.02;;
78205;SDS011;67480;48.920;12.880;2023-03-01T08:04:22;25.73;;;17.00;;
78205;SDS011;67480;48.920;12.880;2023-03-01T08:06:50;23.95;;;16.52;;
78205;SDS011;67480;48.920;12.880;2023-03-01T08:09:16;24.05;;;16.15;;
78205;SDS011;67480;48.920;12.880;2023-03-01T08:11:41;23.13;;;15.85;;
78205;SDS011;67480;48.920;12.880;2023-03-01T08:14:07;20.50;;;14.13;;
78205;SDS011;67480;48.920;12.880;2023-03-01T08:16:32;20.83;;;14.95;;
78205;SDS011;67480;48.920;12.880;2023-03-01T08:19:03;24.38;;;15.05;;
78205;SDS011;67480;48.920;12.880;2023-03-01T08:21:32;18.67;;;13.65;;
78205;SDS011;67480;48.920;12.880;2023-03-01T08:23:59;22.33;;;16.48;;
78205;SDS011;67480;48.920;12.880;2023-03-01T08:26:25;20.45;;;13.80;;
78205;SDS011;67480;48.920;12.880;2023-03-01T08:28:50;20.25;;;14.80;;
78205;SDS011;67480;48.920;12.880;2023-03-01T08:31:26;22.10;;;15.30;;
78205;SDS011;67480;48.920;12.880;2023-03-01T08:33:54;21.13;;;14.93;;
78205;SDS011;67480;48.920;12.880;2023-03-01T08:36:22;20.70;;;14.25;;
78205;SDS011;67480;48.920;12.880;2023-03-01T08:38:49;18.13;;;13.10;;
78205;SDS011;67480;48.920;12.880;2023-03-01T08:41:15;21.70;;;15.65;;
78205;SDS011;67480;48.920;12.880;2023-03-01T08:43:40;18.90;;;14.18;;
78205;SDS011;67480;48.920;12.880;2023-03-01T08:46:06;20.55;;;13.75;;
78205;SDS011;67480;48.920;12.880;2023-03-01T08:48:31;21.58;;;15.07;;
78205;SDS011;67480;48.920;12.880;2023-03-01T08:50:56;20.77;;;15.30;;
78205;SDS011;67480;48.920;12.880;2023-03-01T08:53:22;17.50;;;13.43;;
78205;SDS011;67480;48.920;12.880;2023-03-01T08:55:47;19.83;;;14.93;;
78205;SDS011;67480;48.920;12.880;2023-03-01T08:58:13;18.20;;;13.70;;
78205;SDS011;67480;48.920;12.880;2023-03-01T09:00:38;18.88;;;14.68;;
78205;SDS011;67480;48.920;12.880;2023-03-01T09:03:05;21.42;;;13.98;;
78205;SDS011;67480;48.920;12.880;2023-03-01T09:05:31;19.10;;;13.95;;
78205;SDS011;67480;48.920;12.880;2023-03-01T09:07:57;20.52;;;13.88;;
78205;SDS011;67480;48.920;12.880;2023-03-01T09:10:22;17.48;;;12.88;;
78205;SDS011;67480;48.920;12.880;2023-03-01T09:12:48;17.85;;;13.05;;
78205;SDS011;67480;48.920;12.880;2023-03-01T09:15:13;16.23;;;12.07;;
78205;SDS011;67480;48.920;12.880;2023-03-01T09:17:39;16.73;;;12.30;;
78205;SDS011;67480;48.920;12.880;2023-03-01T09:20:04;17.52;;;14.13;;
78205;SDS011;67480;48.920;12.880;2023-03-01T09:22:30;16.23;;;12.55;;
78205;SDS011;67480;48.920;12.880;2023-03-01T09:24:58;16.23;;;11.40;;
78205;SDS011;67480;48.920;12.880;2023-03-01T09:27:24;17.02;;;12.50;;
78205;SDS011;67480;48.920;12.880;2023-03-01T09:29:50;16.52;;;13.18;;
78205;SDS011;67480;48.920;12.880;2023-03-01T09:32:15;17.55;;;12.80;;
78205;SDS011;67480;48.920;12.880;2023-03-01T09:34:40;16.52;;;12.32;;
78205;SDS011;67480;48.920;12.880;2023-03-01T09:37:24;18.17;;;12.93;;
78205;SDS011;67480;48.920;12.880;2023-03-01T09:39:50;16.92;;;12.48;;
78205;SDS011;67480;48.920;12.880;2023-03-01T09:42:15;17.17;;;11.65;;
78205;SDS011;67480;48.920;12.880;2023-03-01T09:47:19;23.58;;;16.92;;
78205;SDS011;67480;48.920;12.880;2023-03-01T09:52:46;18.30;;;12.10;;
78205;SDS011;67480;48.920;12.880;2023-03-01T09:55:20;28.65;;;20.10;;
78205;SDS011;67480;48.920;12.880;2023-03-01T09:58:06;15.75;;;11.65;;
78205;SDS011;67480;48.920;12.880;2023-03-01T10:01:02;13.65;;;10.45;;
78205;SDS011;67480;48.920;12.880;2023-03-01T10:03:44;15.38;;;11.00;;
78205;SDS011;67480;48.920;12.880;2023-03-01T10:06:34;17.15;;;12.88;;
78205;SDS011;67480;48.920;12.880;2023-03-01T10:09:18;14.98;;;11.52;;
78205;SDS011;67480;48.920;12.880;2023-03-01T10:11:48;14.82;;;11.48;;
78205;SDS011;67480;48.920;12.880;2023-03-01T10:17:12;14.77;;;11.40;;
78205;SDS011;67480;48.920;12.880;2023-03-01T10:20:10;14.93;;;11.87;;
78205;SDS011;67480;48.920;12.880;2023-03-01T10:22:41;14.65;;;11.10;;
78205;SDS011;67480;48.920;12.880;2023-03-01T10:25:08;16.40;;;11.95;;
78205;SDS011;67480;48.920;12.880;2023-03-01T10:27:45;16.42;;;12.65;;
78205;SDS011;67480;48.920;12.880;2023-03-01T10:32:58;17.55;;;11.82;;
78205;SDS011;67480;48.920;12.880;2023-03-01T10:35:26;15.55;;;12.10;;
78205;SDS011;67480;48.920;12.880;2023-03-01T10:37:57;15.07;;;12.05;;
78205;SDS011;67480;48.920;12.880;2023-03-01T10:40:33;14.43;;;10.73;;
78205;SDS011;67480;48.920;12.880;2023-03-01T10:43:01;15.35;;;11.43;;
78205;SDS011;67480;48.920;12.880;2023-03-01T10:50:44;16.30;;;11.65;;
78205;SDS011;67480;48.920;12.880;2023-03-01T10:53:22;17.88;;;12.82;;
78205;SDS011;67480;48.920;12.880;2023-03-01T10:55:56;16.77;;;11.85;;
78205;SDS011;67480;48.920;12.880;2023-03-01T10:58:34;13.63;;;10.95;;
78205;SDS011;67480;48.920;12.880;2023-03-01T11:01:04;17.85;;;11.95;;
78205;SDS011;67480;48.920;12.880;2023-03-01T11:03:35;14.48;;;11.75;;
78205;SDS011;67480;48.920;12.880;2023-03-01T11:13:39;13.73;;;10.52;;
78205;SDS011;67480;48.920;12.880;2023-03-01T11:16:15;14.90;;;11.40;;
78205;SDS011;67480;48.920;12.880;2023-03-01T11:18:55;15.27;;;12.23;;
78205;SDS011;67480;48.920;12.880;2023-03-01T11:21:22;14.25;;;10.90;;
78205;SDS011;67480;48.920;12.880;2023-03-01T11:23:50;13.60;;;10.40;;
78205;SDS011;67480;48.920;12.880;2023-03-01T11:26:15;16.50;;;12.30;;
78205;SDS011;67480;48.920;12.880;2023-03-01T11:28:42;16.35;;;12.82;;
78205;SDS011;67480;48.920;12.880;2023-03-01T11:31:14;15.27;;;11.38;;
78205;SDS011;67480;48.920;12.880;2023-03-01T11:41:38;15.60;;;11.35;;
78205;SDS011;67480;48.920;12.880;2023-03-01T11:44:11;16.23;;;13.05;;
78205;SDS011;67480;48.920;12.880;2023-03-01T11:57:43;15.37;;;12.00;;
78205;SDS011;67480;48.920;12.880;2023-03-01T12:03:10;22.77;;;16.95;;
78205;SDS011;67480;48.920;12.880;2023-03-01T12:17:11;22.35;;;16.65;;
78205;SDS011;67480;48.920;12.880;2023-03-01T12:20:09;16.30;;;13.93;;
78205;SDS011;67480;48.920;12.880;2023-03-01T12:23:16;21.15;;;15.55;;
78205;SDS011;67480;48.920;12.880;2023-03-01T12:50:38;12.02;;;9.77;;
78205;SDS011;67480;48.920;12.880;2023-03-01T12:53:07;13.13;;;10.20;;
78205;SDS011;67480;48.920;12.880;2023-03-01T12:55:44;14.40;;;10.52;;
78205;SDS011;67480;48.920;12.880;2023-03-01T12:58:23;13.30;;;9.82;;
78205;SDS011;67480;48.920;12.880;2023-03-01T13:06:12;13.95;;;10.80;;
78205;SDS011;67480;48.920;12.880;2023-03-01T13:09:03;13.77;;;10.00;;
78205;SDS011;67480;48.920;12.880;2023-03-01T13:11:33;14.25;;;10.38;;
78205;SDS011;67480;48.920;12.880;2023-03-01T13:16:47;12.75;;;10.55;;
78205;SDS011;67480;48.920;12.880;2023-03-01T13:19:17;12.07;;;9.95;;
78205;SDS011;67480;48.920;12.880;2023-03-01T13:21:45;13.00;;;10.73;;
78205;SDS011;67480;48.920;12.880;2023-03-01T13:32:24;12.02;;;9.73;;
78205;SDS011;67480;48.920;12.880;2023-03-01T13:35:02;13.27;;;10.85;;
78205;SDS011;67480;48.920;12.880;2023-03-01T13:37:53;13.15;;;10.10;;
78205;SDS011;67480;48.920;12.880;2023-03-01T13:40:57;13.93;;;10.30;;
78205;SDS011;67480;48.920;12.880;2023-03-01T13:43:28;15.52;;;10.63;;
78205;SDS011;67480;48.920;12.880;2023-03-01T13:45:59;11.15;;;9.45;;
78205;SDS011;67480;48.920;12.880;2023-03-01T13:48:26;13.90;;;10.45;;
78205;SDS011;67480;48.920;12.880;2023-03-01T13:50:55;13.95;;;11.35;;
78205;SDS011;67480;48.920;12.880;2023-03-01T13:53:25;13.75;;;10.93;;
78205;SDS011;67480;48.920;12.880;2023-03-01T13:55:58;15.23;;;10.50;;
78205;SDS011;67480;48.920;12.880;2023-03-01T13:58:50;12.40;;;10.35;;
78205;SDS011;67480;48.920;12.880;2023-03-01T14:01:22;13.32;;;10.82;;
78205;SDS011;67480;48.920;12.880;2023-03-01T14:03:47;20.85;;;16.42;;
78205;SDS011;67480;48.920;12.880;2023-03-01T14:06:14;11.75;;;9.70;;
78205;SDS011;67480;48.920;12.880;2023-03-01T14:08:43;12.52;;;10.02;;
78205;SDS011;67480;48.920;12.880;2023-03-01T14:16:34;15.53;;;13.50;;
78205;SDS011;67480;48.920;12.880;2023-03-01T14:24:56;13.70;;;9.68;;
78205;SDS011;67480;48.920;12.880;2023-03-01T14:27:28;15.02;;;10.20;;
78205;SDS011;67480;48.920;12.880;2023-03-01T14:32:30;11.20;;;9.57;;
78205;SDS011;67480;48.920;12.880;2023-03-01T14:34:57;12.90;;;9.88;;
78205;SDS011;67480;48.920;12.880;2023-03-01T14:37:28;8.48;;;6.45;;
78205;SDS011;67480;48.920;12.880;2023-03-01T14:39:56;8.68;;;6.05;;
78205;SDS011;67480;48.920;12.880;2023-03-01T14:42:23;8.07;;;5.72;;
78205;SDS011;67480;48.920;12.880;2023-03-01T14:44:53;6.50;;;5.75;;
78205;SDS011;67480;48.920;12.880;2023-03-01T14:47:27;9.38;;;6.55;;
78205;SDS011;67480;48.920;12.880;2023-03-01T14:49:59;7.72;;;5.70;;
78205;SDS011;67480;48.920;12.880;2023-03-01T14:52:41;8.63;;;5.90;;
78205;SDS011;67480;48.920;12.880;2023-03-01T14:55:16;8.45;;;6.65;;
78205;SDS011;67480;48.920;12.880;2023-03-01T14:57:46;8.38;;;6.07;;
78205;SDS011;67480;48.920;12.880;2023-03-01T15:00:23;13.27;;;6.97;;
78205;SDS011;67480;48.920;12.880;2023-03-01T15:02:51;12.27;;;7.88;;
78205;SDS011;67480;48.920;12.880;2023-03-01T15:05:26;9.60;;;7.38;;
78205;SDS011;67480;48.920;12.880;2023-03-01T15:07:55;8.90;;;6.70;;
78205;SDS011;67480;48.920;12.880;2023-03-01T15:10:24;8.63;;;7.05;;
78205;SDS011;67480;48.920;12.880;2023-03-01T15:12:51;11.15;;;7.10;;
78205;SDS011;67480;48.920;12.880;2023-03-01T15:15:34;9.98;;;6.78;;
78205;SDS011;67480;48.920;12.880;2023-03-01T15:18:03;9.30;;;7.10;;
78205;SDS011;67480;48.920;12.880;2023-03-01T15:20:38;14.27;;;9.95;;
78205;SDS011;67480;48.920;12.880;2023-03-01T15:23:04;13.88;;;9.60;;
78205;SDS011;67480;48.920;12.880;2023-03-01T15:25:30;12.73;;;9.75;;
78205;SDS011;67480;48.920;12.880;2023-03-01T15:27:58;15.40;;;11.27;;
78205;SDS011;67480;48.920;12.880;2023-03-01T15:30:26;15.38;;;12.30;;
78205;SDS011;67480;48.920;12.880;2023-03-01T15:35:51;16.63;;;12.32;;
78205;SDS011;67480;48.920;12.880;2023-03-01T15:38:32;17.40;;;12.35;;
78205;SDS011;67480;48.920;12.880;2023-03-01T15:41:00;15.02;;;11.43;;
78205;SDS011;67480;48.920;12.880;2023-03-01T15:43:45;16.13;;;11.60;;
78205;SDS011;67480;48.920;12.880;2023-03-01T15:48:52;15.93;;;11.00;;
78205;SDS011;67480;48.920;12.880;2023-03-01T15:51:54;14.90;;;11.05;;
78205;SDS011;67480;48.920;12.880;2023-03-01T15:54:17;16.60;;;11.52;;
78205;SDS011;67480;48.920;12.880;2023-03-01T15:56:45;19.38;;;12.50;;
78205;SDS011;67480;48.920;12.880;2023-03-01T15:59:11;16.80;;;11.43;;
78205;SDS011;67480;48.920;12.880;2023-03-01T16:01:38;16.23;;;12.50;;
78205;SDS011;67480;48.920;12.880;2023-03-01T16:04:04;17.45;;;13.02;;
78205;SDS011;67480;48.920;12.880;2023-03-01T16:06:29;16.42;;;11.93;;
78205;SDS011;67480;48.920;12.880;2023-03-01T16:08:55;18.17;;;11.35;;
78205;SDS011;67480;48.920;12.880;2023-03-01T16:11:20;16.70;;;12.05;;
78205;SDS011;67480;48.920;12.880;2023-03-01T16:13:45;17.23;;;12.75;;
78205;SDS011;67480;48.920;12.880;2023-03-01T16:16:11;17.30;;;11.38;;
78205;SDS011;67480;48.920;12.880;2023-03-01T16:18:40;16.90;;;11.68;;
78205;SDS011;67480;48.920;12.880;2023-03-01T16:21:06;16.52;;;11.77;;
78205;SDS011;67480;48.920;12.880;2023-03-01T16:23:31;18.77;;;11.52;;